Time;durP1;ratioP1;P1;durP2;ratioP2;P2;SDS_P1;SDS_P2;PMS_P1;PMS_P2;Temp;Humidity;BMP_temperature;BMP_pressure;BME280_temperature;BME280_humidity;BME280_pressure;Samples;Min_cycle;Max_cycle;Signal;HPM_P1;HPM_P2
2021/10/14 00:01:46;;;;;;;;;4.00;3.00;;;;;11.95;59.61;102512.25;5080613;28;47295;-81
2021/10/14 00:04:14;;;;;;;;;2.00;2.00;;;;;11.61;59.80;102459.00;5081996;28;45240;-81
2021/10/14 00:06:40;;;;;;;;;9.00;2.75;;;;;11.28;59.91;102417.09;5082266;28;45335;-81
2021/10/14 00:09:05;;;;;;;;;6.50;4.00;;;;;11.83;60.20;102512.75;5082320;28;45433;-82
2021/10/14 00:11:30;;;;;;;;;2.00;2.00;;;;;11.35;60.00;102433.84;5081094;28;46415;-82
2021/10/14 00:13:56;;;;;;;;;2.00;2.00;;;;;11.60;59.61;102480.69;5080801;28;45832;-82
2021/10/14 00:16:21;;;;;;;;;2.00;2.00;;;;;11.53;59.55;102470.06;5063397;28;45296;-82
2021/10/14 00:18:46;;;;;;;;;2.25;2.25;;;;;11.19;59.29;102421.13;5082240;28;45410;-83
2021/10/14 00:21:12;;;;;;;;;6.50;3.50;;;;;11.31;59.80;102444.13;5063759;28;47042;-83
2021/10/14 00:23:37;;;;;;;;;1.75;1.75;;;;;11.43;59.70;102465.41;5067266;28;45336;-82
2021/10/14 00:26:04;;;;;;;;;0.67;0.67;;;;;10.96;60.04;102387.41;5085466;28;45273;-82
2021/10/14 00:28:30;;;;;;;;;1.75;1.75;;;;;11.68;60.95;102510.53;5087976;28;45168;-83
2021/10/14 00:30:55;;;;;;;;;3.75;3.75;;;;;11.24;60.87;102438.69;5088012;28;45333;-83
2021/10/14 00:33:20;;;;;;;;;8.00;5.50;;;;;11.39;61.49;102477.44;5069011;28;45231;-83
2021/10/14 00:35:46;;;;;;;;;3.75;3.00;;;;;11.35;61.46;102465.13;5069034;28;45253;-83
2021/10/14 00:38:11;;;;;;;;;5.00;5.00;;;;;10.98;61.73;102397.03;5069853;28;45581;-83
2021/10/14 00:40:37;;;;;;;;;5.00;5.00;;;;;11.63;62.02;102517.31;5084811;28;45322;-83
2021/10/14 00:43:03;;;;;;;;;8.25;7.25;;;;;11.18;62.14;102448.91;5085065;28;45538;-83
2021/10/14 00:45:40;;;;;;;;;7.25;5.00;;;;;11.41;62.46;102482.69;5066858;28;45461;-83
2021/10/14 00:48:26;;;;;;;;;9.75;7.00;;;;;10.90;62.19;102388.03;5066652;28;45753;-83
2021/10/14 00:50:51;;;;;;;;;6.00;3.25;;;;;10.69;61.64;102354.34;5066083;28;46981;-83
2021/10/14 00:53:17;;;;;;;;;5.50;4.50;;;;;11.11;61.69;102432.19;5066511;28;45468;-82
2021/10/14 00:55:42;;;;;;;;;9.75;4.50;;;;;11.23;61.56;102456.91;5066628;28;45311;-83
2021/10/14 00:58:08;;;;;;;;;3.25;3.25;;;;;11.31;61.42;102476.31;5085825;28;45177;-83
2021/10/14 01:00:34;;;;;;;;;4.50;3.75;;;;;11.03;61.38;102423.25;5085505;28;45248;-83
2021/10/14 01:02:59;;;;;;;;;2.75;2.00;;;;;11.27;61.27;102464.88;5066485;28;45248;-83
2021/10/14 01:05:25;;;;;;;;;3.50;3.00;;;;;11.49;61.06;102506.44;5084180;28;45216;-83
2021/10/14 01:10:36;;;;;;;;;7.50;2.00;;;;;10.32;61.17;102296.66;5084062;28;45591;-83
2021/10/14 01:13:02;;;;;;;;;2.75;2.75;;;;;11.20;60.63;102456.78;5047918;28;45855;-83
2021/10/14 01:20:02;;;;;;;;;1.50;1.50;;;;;10.83;60.49;102384.34;5055895;28;45498;-83
2021/10/14 01:22:27;;;;;;;;;2.25;1.25;;;;;10.98;60.55;102404.84;4978176;28;45613;-83
2021/10/14 01:24:53;;;;;;;;;1.50;1.50;;;;;11.35;60.25;102470.34;5045631;28;45381;-82
2021/10/14 01:27:18;;;;;;;;;4.00;4.00;;;;;11.45;60.63;102491.53;5046022;28;45447;-83
2021/10/14 01:29:43;;;;;;;;;2.00;2.00;;;;;11.10;60.39;102425.22;5046268;28;45470;-83
2021/10/14 01:32:09;;;;;;;;;4.75;4.75;;;;;11.11;60.62;102437.41;5063652;28;45373;-83
2021/10/14 01:34:34;;;;;;;;;4.00;4.00;;;;;10.78;61.40;102380.69;5063906;28;45383;-83
2021/10/14 01:37:00;;;;;;;;;4.50;4.50;;;;;10.90;61.73;102408.88;5065814;28;45783;-84
2021/10/14 01:39:25;;;;;;;;;2.75;1.75;;;;;10.50;61.71;102354.59;5051385;28;45383;-85
2021/10/14 01:41:51;;;;;;;;;2.25;2.25;;;;;10.52;62.26;102370.28;5049361;28;46669;-85
2021/10/14 01:44:17;;;;;;;;;4.75;4.50;;;;;10.68;62.41;102386.41;5047353;28;45376;-85
2021/10/14 01:46:42;;;;;;;;;3.50;3.50;;;;;10.99;62.24;102461.31;5069800;28;45285;-85
2021/10/14 01:49:08;;;;;;;;;5.50;3.50;;;;;10.64;62.39;102394.16;5057616;28;45355;-85
2021/10/14 01:51:33;;;;;;;;;3.25;2.50;;;;;10.81;62.50;102445.94;5048040;28;47537;-85
2021/10/14 01:53:59;;;;;;;;;3.50;2.75;;;;;10.87;62.68;102446.16;5048363;28;45357;-84
2021/10/14 01:56:24;;;;;;;;;4.50;1.75;;;;;10.62;62.06;102402.72;5049164;28;45341;-85
2021/10/14 01:58:50;;;;;;;;;2.25;2.25;;;;;10.97;62.45;102465.59;5066557;28;45214;-84
2021/10/14 02:01:15;;;;;;;;;4.50;2.50;;;;;10.58;62.04;102396.53;5052077;28;46960;-84
2021/10/14 02:03:40;;;;;;;;;2.50;2.25;;;;;10.39;61.97;102368.94;5050812;28;45692;-83
2021/10/14 02:06:06;;;;;;;;;8.50;3.75;;;;;10.73;62.37;102423.94;5051431;28;45266;-85
2021/10/14 02:08:31;;;;;;;;;3.75;2.25;;;;;10.47;62.36;102384.84;5069579;28;45248;-85
2021/10/14 02:10:56;;;;;;;;;2.75;2.75;;;;;10.49;62.37;102385.78;5063187;28;47948;-84
2021/10/14 02:13:22;;;;;;;;;2.50;1.25;;;;;10.88;62.66;102452.25;5045789;28;45322;-84
2021/10/14 02:15:47;;;;;;;;;1.00;1.00;;;;;10.38;62.45;102381.03;5045779;28;45254;-84
2021/10/14 02:18:13;;;;;;;;;5.75;3.25;;;;;10.24;62.70;102351.03;5045785;28;45486;-84
2021/10/14 02:20:38;;;;;;;;;3.75;2.25;;;;;10.28;62.35;102358.13;5064784;28;46349;-84
2021/10/14 02:23:04;;;;;;;;;3.00;1.75;;;;;10.82;62.60;102447.72;5065533;28;45417;-84
2021/10/14 02:25:29;;;;;;;;;2.75;2.75;;;;;10.59;62.58;102413.94;5083855;28;45327;-83
2021/10/14 02:27:54;;;;;;;;;1.50;1.50;;;;;10.40;62.36;102375.91;5066161;28;45430;-85
2021/10/14 02:30:20;;;;;;;;;1.75;0.50;;;;;10.32;62.73;102343.50;5065862;28;48519;-85
2021/10/14 02:32:46;;;;;;;;;0.50;0.50;;;;;10.39;62.63;102361.97;5058871;28;45576;-84
2021/10/14 02:35:12;;;;;;;;;3.00;3.00;;;;;10.92;62.24;102442.81;5043625;28;45528;-84
2021/10/14 02:37:37;;;;;;;;;3.25;2.50;;;;;10.52;62.26;102375.47;5061461;28;45519;-84
2021/10/14 02:40:05;;;;;;;;;4.50;4.50;;;;;10.66;62.03;102395.91;5044971;28;47135;-84
2021/10/14 02:42:30;;;;;;;;;6.50;5.00;;;;;10.63;62.25;102394.97;5044921;28;45372;-84
2021/10/14 02:44:56;;;;;;;;;2.25;2.25;;;;;10.71;62.25;102426.50;5043989;28;45280;-84
2021/10/14 02:47:21;;;;;;;;;5.00;2.50;;;;;10.60;62.03;102415.69;5045329;28;45614;-84
2021/10/14 02:49:49;;;;;;;;;3.50;2.50;;;;;10.61;62.61;102435.72;5044785;28;47216;-84
2021/10/14 02:55:56;;;;;;;;;4.50;2.00;;;;;10.54;62.63;102448.44;5062638;28;45394;-86
2021/10/14 02:58:30;;;;;;;;;2.00;2.00;;;;;9.74;62.84;102318.88;5044395;28;45198;-84
2021/10/14 03:00:55;;;;;;;;;4.25;4.00;;;;;9.56;63.09;102287.88;5044441;28;46464;-84
2021/10/14 03:03:39;;;;;;;;;2.50;2.50;;;;;9.84;63.11;102321.84;5044581;28;45249;-84
2021/10/14 03:06:05;;;;;;;;;2.00;2.00;;;;;10.02;62.73;102360.66;5061826;28;45320;-84
2021/10/14 03:08:30;;;;;;;;;1.25;1.25;;;;;10.54;62.76;102456.25;5045086;28;45343;-86
2021/10/14 03:14:25;;;;;;;;;1.25;1.25;;;;;9.31;63.08;102257.47;5061169;28;45384;-85
2021/10/14 03:16:50;;;;;;;;;2.25;1.50;;;;;9.56;63.26;102303.47;5045046;28;45465;-85
2021/10/14 03:19:16;;;;;;;;;1.50;1.50;;;;;9.74;63.29;102337.09;5044739;28;45414;-84
2021/10/14 03:21:41;;;;;;;;;2.00;2.00;;;;;9.65;63.32;102317.66;5040003;28;47904;-84
2021/10/14 03:24:06;;;;;;;;;2.75;2.25;;;;;10.01;63.49;102391.00;5061305;28;45465;-85
2021/10/14 03:26:32;;;;;;;;;4.25;3.00;;;;;9.79;63.44;102333.78;5044943;28;45333;-84
2021/10/14 03:28:57;;;;;;;;;1.00;1.00;;;;;10.13;63.48;102393.16;5046557;28;45295;-84
2021/10/14 03:31:23;;;;;;;;;1.75;1.00;;;;;9.87;63.47;102360.97;5062195;28;47001;-85
2021/10/14 03:33:48;;;;;;;;;1.75;1.75;;;;;9.80;63.63;102340.78;5051732;28;45186;-85
2021/10/14 03:36:14;;;;;;;;;4.50;2.25;;;;;10.10;63.36;102381.75;5048593;28;45206;-84
2021/10/14 03:38:39;;;;;;;;;4.75;1.25;;;;;9.80;63.10;102323.44;5048895;28;45224;-85
2021/10/14 03:41:04;;;;;;;;;2.25;2.25;;;;;10.32;63.08;102432.88;5044082;28;47188;-84
2021/10/14 03:43:30;;;;;;;;;3.00;1.50;;;;;10.01;63.26;102371.88;5044060;28;45208;-85
2021/10/14 03:45:55;;;;;;;;;2.00;1.00;;;;;9.85;63.22;102345.31;5044399;28;45280;-85
2021/10/14 03:48:20;;;;;;;;;2.00;1.00;;;;;9.98;63.05;102370.06;5044260;28;45245;-84
2021/10/14 03:50:46;;;;;;;;;1.00;1.00;;;;;10.18;63.29;102406.38;5043946;28;47843;-84
2021/10/14 03:53:12;;;;;;;;;0.75;0.00;;;;;9.79;63.38;102341.56;5043991;28;45272;-85
2021/10/14 03:55:37;;;;;;;;;3.00;1.75;;;;;10.18;63.47;102410.66;5045015;28;45322;-83
2021/10/14 03:58:03;;;;;;;;;1.00;1.00;;;;;10.13;63.06;102400.09;5048059;28;45425;-85
2021/10/14 04:00:28;;;;;;;;;0.00;0.00;;;;;10.17;63.09;102401.09;5047177;28;47236;-83
2021/10/14 04:03:03;;;;;;;;;0.75;0.75;;;;;9.55;63.01;102290.44;5066212;28;45311;-84
2021/10/14 04:05:28;;;;;;;;;1.00;1.00;;;;;9.40;63.42;102259.53;5064575;28;45473;-84
2021/10/14 04:07:53;;;;;;;;;1.75;1.75;;;;;10.41;63.46;102418.44;5048111;28;45526;-84
2021/10/14 04:10:19;;;;;;;;;1.25;1.25;;;;;10.41;63.05;102424.53;5048918;28;48378;-84
2021/10/14 04:12:44;;;;;;;;;0.75;0.50;;;;;10.46;63.16;102438.66;5047780;28;45442;-84
2021/10/14 04:15:10;;;;;;;;;1.75;1.75;;;;;10.22;62.62;102386.53;5048021;28;45335;-84
2021/10/14 04:17:35;;;;;;;;;3.00;3.00;;;;;9.82;62.80;102323.50;5072080;28;45356;-84
2021/10/14 04:20:01;;;;;;;;;1.50;1.00;;;;;10.28;63.08;102423.19;5066627;28;48176;-84
2021/10/14 04:22:27;;;;;;;;;4.00;2.25;;;;;10.47;63.14;102452.53;5048185;28;45377;-84
2021/10/14 04:24:53;;;;;;;;;1.75;1.50;;;;;10.06;63.57;102385.97;5066489;28;45268;-83
2021/10/14 04:27:19;;;;;;;;;0.50;0.50;;;;;10.10;63.54;102397.38;5047785;28;45267;-84
2021/10/14 04:29:44;;;;;;;;;0.75;0.25;;;;;9.96;63.47;102389.06;5047617;28;47074;-84
2021/10/14 04:32:11;;;;;;;;;1.50;0.75;;;;;9.83;63.68;102356.50;5080911;28;45907;-84
2021/10/14 04:34:37;;;;;;;;;1.00;1.00;;;;;10.13;63.33;102400.97;5067613;28;45488;-84
2021/10/14 04:37:13;;;;;;;;;1.00;1.00;;;;;9.67;63.25;102324.69;5069242;28;45530;-84
2021/10/14 04:39:39;;;;;;;;;5.50;2.25;;;;;9.34;63.33;102286.19;5083995;28;46916;-84
2021/10/14 04:42:06;;;;;;;;;1.00;1.00;;;;;10.47;63.31;102461.25;5063169;28;45462;-84
2021/10/14 04:44:32;;;;;;;;;1.50;1.50;;;;;9.82;63.51;102355.59;5073868;28;45413;-84
2021/10/14 04:46:57;;;;;;;;;1.50;1.25;;;;;10.23;63.70;102433.44;5085554;28;45485;-83
2021/10/14 04:49:23;;;;;;;;;2.50;2.00;;;;;10.21;63.43;102427.31;5067418;28;46954;-83
2021/10/14 04:51:48;;;;;;;;;2.25;2.25;;;;;10.42;63.77;102462.78;5078266;28;45177;-83
2021/10/14 04:54:14;;;;;;;;;3.25;2.75;;;;;10.01;63.43;102400.50;5061748;28;45278;-84
2021/10/14 04:56:39;;;;;;;;;2.00;2.00;;;;;10.40;63.58;102467.03;5055419;28;45359;-83
2021/10/14 04:59:05;;;;;;;;;1.00;1.00;;;;;10.32;64.12;102466.72;5067193;28;46415;-84
2021/10/14 05:01:30;;;;;;;;;2.25;2.00;;;;;10.39;63.70;102467.84;5064786;28;45281;-81
2021/10/14 05:03:55;;;;;;;;;3.75;3.00;;;;;9.83;63.92;102379.91;5047473;28;45254;-81
2021/10/14 05:06:21;;;;;;;;;3.50;2.00;;;;;10.23;63.79;102438.63;5074349;28;45338;-80
2021/10/14 05:08:46;;;;;;;;;3.00;3.00;;;;;9.91;63.52;102391.47;5059593;28;47175;-80
2021/10/14 05:11:13;;;;;;;;;2.25;2.00;;;;;10.43;63.96;102469.75;5078216;28;45371;-82
2021/10/14 05:13:39;;;;;;;;;4.75;2.25;;;;;10.36;63.70;102463.41;5083390;28;45556;-80
2021/10/14 05:16:05;;;;;;;;;1.75;1.75;;;;;9.93;63.80;102399.34;5082063;28;45387;-82
2021/10/14 05:18:30;;;;;;;;;2.00;1.75;;;;;10.06;64.17;102431.91;5069937;28;45539;-82
2021/10/14 05:20:56;;;;;;;;;3.00;2.00;;;;;10.04;63.94;102434.44;5082643;28;45286;-82
2021/10/14 05:23:21;;;;;;;;;1.00;1.00;;;;;9.85;63.84;102406.84;5064026;28;45362;-81
2021/10/14 05:25:46;;;;;;;;;2.00;1.00;;;;;9.95;64.14;102415.91;5065524;28;45252;-82
2021/10/14 05:28:12;;;;;;;;;1.25;1.25;;;;;9.87;64.61;102406.06;5061158;28;46462;-81
2021/10/14 05:30:38;;;;;;;;;2.75;1.00;;;;;10.08;64.00;102425.94;5065454;28;45428;-80
2021/10/14 05:33:03;;;;;;;;;3.00;0.00;;;;;10.05;64.13;102433.66;5062845;28;45486;-81
2021/10/14 05:35:29;;;;;;;;;1.25;1.25;;;;;9.98;64.02;102429.91;5066229;28;45454;-82
2021/10/14 05:37:54;;;;;;;;;2.00;2.00;;;;;9.83;63.59;102398.13;5083726;28;45475;-81
2021/10/14 05:40:19;;;;;;;;;2.50;2.00;;;;;10.06;64.06;102432.81;5082120;28;45274;-79
2021/10/14 05:42:45;;;;;;;;;2.00;2.00;;;;;10.11;63.82;102440.78;5083749;28;45438;-80
2021/10/14 05:45:10;;;;;;;;;2.00;2.00;;;;;9.71;64.09;102378.59;5084006;28;45562;-81
2021/10/14 05:47:36;;;;;;;;;2.50;0.75;;;;;9.93;63.92;102412.34;5082309;27;48551;-84
2021/10/14 05:50:03;;;;;;;;;2.00;1.00;;;;;9.99;63.77;102428.19;5065213;28;45367;-81
2021/10/14 05:52:29;;;;;;;;;3.00;1.75;;;;;10.21;63.72;102462.84;5084063;28;45352;-84
2021/10/14 05:54:55;;;;;;;;;1.00;1.00;;;;;9.81;63.86;102382.44;5065171;28;45343;-82
2021/10/14 05:57:20;;;;;;;;;1.00;1.00;;;;;10.22;63.82;102441.19;5074244;28;45455;-80
2021/10/14 05:59:46;;;;;;;;;3.25;3.00;;;;;10.27;64.15;102450.06;5083140;28;45518;-81
2021/10/14 06:02:11;;;;;;;;;2.50;1.75;;;;;10.30;63.75;102444.97;5084184;28;45285;-81
2021/10/14 06:04:37;;;;;;;;;4.00;2.25;;;;;10.36;63.59;102452.13;5066839;28;45501;-81
2021/10/14 06:07:02;;;;;;;;;2.25;1.75;;;;;10.27;63.71;102431.84;5068366;28;48142;-83
2021/10/14 06:09:27;;;;;;;;;2.75;1.75;;;;;10.24;63.57;102437.81;5065586;28;45434;-82
2021/10/14 06:11:53;;;;;;;;;2.00;2.00;;;;;9.68;63.81;102336.00;5069321;28;45567;-83
2021/10/14 06:14:19;;;;;;;;;2.50;2.00;;;;;10.14;63.49;102410.56;5062781;28;45325;-84
2021/10/14 06:16:44;;;;;;;;;2.75;2.75;;;;;10.29;63.89;102430.16;5060177;28;47413;-83
2021/10/14 06:19:10;;;;;;;;;3.75;3.00;;;;;10.30;63.88;102436.28;5061763;28;45426;-90
2021/10/14 06:21:35;;;;;;;;;2.50;2.00;;;;;10.23;63.50;102424.75;5063408;28;45273;-81
2021/10/14 06:24:01;;;;;;;;;2.75;1.75;;;;;10.34;63.85;102444.25;5068400;28;45573;-86
2021/10/14 06:26:26;;;;;;;;;2.25;2.00;;;;;10.14;63.39;102405.34;5082384;28;47240;-87
2021/10/14 06:28:52;;;;;;;;;4.25;3.00;;;;;10.13;63.69;102410.50;5067915;28;45204;-85
2021/10/14 06:31:17;;;;;;;;;6.25;2.75;;;;;10.32;63.63;102434.63;5086423;28;45349;-87
2021/10/14 06:33:42;;;;;;;;;1.25;1.25;;;;;10.01;63.31;102387.50;5086667;28;45188;-86
2021/10/14 06:36:08;;;;;;;;;4.00;4.00;;;;;9.95;63.71;102382.09;5086231;28;47274;-86
2021/10/14 06:38:34;;;;;;;;;5.75;5.75;;;;;10.43;63.52;102453.22;5084478;28;45989;-86
2021/10/14 06:40:59;;;;;;;;;2.00;2.00;;;;;10.29;63.54;102429.28;5067253;28;45492;-85
2021/10/14 06:43:24;;;;;;;;;5.00;5.00;;;;;10.21;64.07;102422.09;5067758;28;45291;-86
2021/10/14 06:45:50;;;;;;;;;4.75;3.00;;;;;10.19;63.56;102423.75;5067302;28;47516;-85
2021/10/14 06:48:16;;;;;;;;;3.50;2.00;;;;;10.13;63.70;102400.09;5082865;28;45323;-85
2021/10/14 06:50:41;;;;;;;;;3.75;2.50;;;;;10.22;63.80;102407.34;5085139;28;45237;-87
2021/10/14 06:53:10;;;;;;;;;4.00;2.75;;;;;10.57;63.57;102474.59;5086166;28;45659;-88
2021/10/14 07:02:34;;;;;;;;;3.00;3.00;;;;;9.74;63.73;102333.63;5090759;27;45304;-88
2021/10/14 07:05:02;;;;;;;;;5.50;5.00;;;;;10.51;63.65;102454.44;5077460;28;44892;-88
2021/10/14 07:07:58;;;;;;;;;2.50;2.50;;;;;9.41;63.27;102267.41;5077468;28;45957;-88
2021/10/14 07:14:05;;;;;;;;;1.50;1.50;;;;;9.35;63.03;102215.19;4996009;28;45372;-88
2021/10/14 07:16:56;;;;;;;;;4.00;1.75;;;;;10.83;63.14;102472.03;4980592;28;45402;-86
2021/10/14 07:19:21;;;;;;;;;2.50;2.50;;;;;9.70;62.91;102265.00;5060082;28;47093;-85
2021/10/14 07:21:47;;;;;;;;;3.75;3.75;;;;;10.58;63.00;102400.84;5059305;28;45509;-86
2021/10/14 07:24:13;;;;;;;;;4.50;2.25;;;;;10.56;62.77;102374.75;5052166;28;45336;-87
2021/10/14 07:26:58;;;;;;;;;2.75;2.75;;;;;11.19;62.50;102457.63;5063997;28;45364;-85
2021/10/14 07:29:33;;;;;;;;;2.00;2.00;;;;;10.79;62.25;102379.88;5049413;28;46681;-83
2021/10/14 07:31:59;;;;;;;;;3.75;3.75;;;;;9.96;61.97;102244.22;5063674;28;45444;-86
2021/10/14 07:34:39;;;;;;;;;4.00;4.00;;;;;11.29;62.22;102459.72;5060643;28;45449;-84
2021/10/14 07:37:06;;;;;;;;;3.25;3.25;;;;;10.96;62.05;102398.69;5076654;28;45428;-84
2021/10/14 07:40:36;;;;;;;;;5.75;4.25;;;;;10.72;62.10;102346.66;5055221;28;46556;-88
2021/10/14 07:43:30;;;;;;;;;2.00;2.00;;;;;11.45;61.91;102461.09;5079802;28;45619;-89
2021/10/14 07:46:25;;;;;;;;;3.75;3.00;;;;;11.54;61.83;102463.13;5064725;28;45252;-86
2021/10/14 07:48:50;;;;;;;;;5.00;4.25;;;;;11.19;61.78;102402.88;5064227;28;45286;-86
2021/10/14 07:51:16;;;;;;;;;5.25;3.25;;;;;11.25;61.68;102397.88;5055031;28;47788;-87
2021/10/14 07:57:24;;;;;;;;;3.75;3.75;;;;;11.67;61.19;102467.00;5070255;28;45405;-84
2021/10/14 07:59:59;;;;;;;;;5.00;2.75;;;;;11.74;61.29;102457.66;5057220;28;45446;-85
2021/10/14 08:02:40;;;;;;;;;5.75;3.50;;;;;10.69;61.08;102268.41;5052593;28;45638;-84
2021/10/14 08:05:25;;;;;;;;;5.00;4.25;;;;;11.32;61.06;102380.69;5060102;28;45444;-84
2021/10/14 08:11:31;;;;;;;;;4.75;2.00;;;;;10.55;60.56;102215.84;4983424;28;45253;-82
2021/10/14 08:14:41;;;;;;;;;2.00;2.00;;;;;10.63;60.83;102212.66;4966993;28;46875;-85
2021/10/14 08:17:07;;;;;;;;;3.25;0.00;;;;;11.75;60.43;102413.34;5039165;28;45368;-83
2021/10/14 08:19:43;;;;;;;;;9.50;4.00;;;;;12.14;60.58;102451.09;5061031;28;45424;-84
2021/10/14 08:22:18;;;;;;;;;4.00;2.75;;;;;11.55;60.78;102337.13;5062139;28;45595;-84
2021/10/14 08:24:50;;;;;;;;;2.00;2.00;;;;;11.58;60.54;102325.88;5073848;27;45518;-83
2021/10/14 08:27:25;;;;;;;;;7.75;3.25;;;;;11.81;60.43;102333.47;5063224;28;45590;-83
2021/10/14 08:30:05;;;;;;;;;3.50;3.50;;;;;11.87;60.22;102341.50;5060202;28;45439;-88
2021/10/14 08:32:42;;;;;;;;;7.50;3.00;;;;;11.91;59.56;102314.63;5058425;28;45240;-86
2021/10/14 08:35:08;;;;;;;;;4.75;3.75;;;;;12.09;59.53;102329.97;5058294;28;45745;-89
2021/10/14 08:37:47;;;;;;;;;4.75;2.25;;;;;11.60;59.48;102243.31;5056606;28;45531;-89
2021/10/14 08:40:16;;;;;;;;;6.00;2.75;;;;;12.84;59.24;102457.38;5061347;28;45537;-83
2021/10/14 08:42:45;;;;;;;;;4.25;2.50;;;;;12.01;59.52;102294.94;5047978;28;45521;-83
2021/10/14 08:45:33;;;;;;;;;10.00;3.75;;;;;12.94;59.42;102468.94;5044836;28;48199;-82
2021/10/14 08:48:07;;;;;;;;;3.25;1.75;;;;;12.29;58.92;102330.50;5067537;28;45300;-83
2021/10/14 08:50:48;;;;;;;;;4.75;3.75;;;;;12.40;59.00;102351.72;5078422;28;45573;-83
2021/10/14 08:53:22;;;;;;;;;5.00;4.50;;;;;12.61;58.95;102363.56;5050155;28;45859;-82
2021/10/14 08:55:47;;;;;;;;;3.75;3.50;;;;;12.75;58.57;102368.28;5052974;28;47081;-82
2021/10/14 08:58:27;;;;;;;;;1.75;1.75;;;;;12.67;58.22;102323.66;5045552;28;45221;-82
2021/10/14 09:01:08;;;;;;;;;1.75;1.75;;;;;12.73;58.14;102315.97;5056066;28;45411;-83
2021/10/14 09:03:41;;;;;;;;;3.25;3.25;;;;;12.54;57.96;102254.53;5062590;28;45442;-83
2021/10/14 09:06:09;;;;;;;;;7.25;5.00;;;;;12.79;57.80;102284.78;5073980;28;46763;-83
2021/10/14 09:09:14;;;;;;;;;3.00;3.00;;;;;13.87;57.49;102451.16;5061209;28;45473;-84
2021/10/14 09:12:03;;;;;;;;;3.50;2.75;;;;;13.34;57.38;102325.25;5064429;28;45397;-84
2021/10/14 09:14:28;;;;;;;;;2.25;2.25;;;;;14.10;56.96;102435.06;5079490;28;45511;-85
2021/10/14 09:17:29;;;;;;;;;2.00;2.00;;;;;14.22;56.57;102435.31;5074710;28;46614;-86
2021/10/14 09:19:57;;;;;;;;;3.75;3.75;;;;;13.96;56.54;102370.19;5055117;28;45518;-84
2021/10/14 09:23:03;;;;;;;;;1.75;1.75;;;;;13.84;56.02;102328.06;5030222;28;45479;-83
2021/10/14 09:26:24;;;;;;;;;9.25;3.00;;;;;14.47;55.48;102427.06;5027939;28;45495;-86
2021/10/14 09:29:27;;;;;;;;;;;;;;;;;;;;;
2021/10/14 09:32:20;;;;;;;;;1.00;1.00;;;;;14.69;55.52;102415.25;5047625;28;73128;-84
2021/10/14 09:34:49;;;;;;;;;2.00;1.00;;;;;14.19;54.85;102320.88;5031853;28;45361;-85
2021/10/14 09:37:56;;;;;;;;;2.00;2.00;;;;;13.73;54.60;102234.50;5046508;28;45402;-84
2021/10/14 09:40:44;;;;;;;;;;;;;;;;;;;;;
2021/10/14 09:50:31;;;;;;;;;1.50;1.50;;;;;15.26;53.61;102409.25;5408670;22;46660;-86
2021/10/14 09:53:19;;;;;;;;;2.50;2.00;;;;;14.68;53.58;102298.16;4981377;28;48285;-83
2021/10/14 09:55:55;;;;;;;;;2.00;2.00;;;;;14.61;52.56;102284.06;4988791;28;45333;-82
2021/10/14 09:58:48;;;;;;;;;1.50;1.00;;;;;15.39;52.43;102398.09;4995919;28;45442;-82
2021/10/14 10:01:30;;;;;;;;;2.00;1.00;;;;;15.47;52.38;102395.59;4982301;28;45415;-82
2021/10/14 10:04:51;;;;;;;;;1.00;1.00;;;;;14.99;52.05;102290.81;4996772;28;46344;-82
2021/10/14 10:07:25;;;;;;;;;1.00;1.00;;;;;15.20;51.75;102297.25;5020502;28;45629;-82
2021/10/14 10:09:51;;;;;;;;;1.00;1.00;;;;;15.12;50.54;102286.63;5033039;28;45492;-83
2021/10/14 10:12:16;;;;;;;;;0.00;0.00;;;;;15.76;49.55;102387.22;4991712;28;45390;-83
2021/10/14 10:14:42;;;;;;;;;1.00;0.00;;;;;15.56;49.70;102345.81;4994226;28;47222;-82
2021/10/14 10:17:08;;;;;;;;;0.00;0.00;;;;;14.56;50.05;102163.47;4989623;28;45481;-81
2021/10/14 10:19:48;;;;;;;;;0.50;0.25;;;;;15.96;48.67;102387.50;4995911;28;45269;-83
2021/10/14 10:22:33;;;;;;;;;2.00;1.00;;;;;15.99;48.40;102372.66;4981682;28;45288;-84
2021/10/14 10:25:18;;;;;;;;;0.00;0.00;;;;;15.66;47.74;102311.84;4962930;28;47189;-82
2021/10/14 10:27:52;;;;;;;;;0.00;0.00;;;;;15.37;47.62;102273.84;4963366;28;45306;-86
2021/10/14 10:30:32;;;;;;;;;0.00;0.00;;;;;16.03;47.27;102370.09;4976725;28;45486;-85
2021/10/14 10:32:58;;;;;;;;;0.00;0.00;;;;;15.88;47.57;102349.75;4970666;28;45560;-85
2021/10/14 10:35:47;;;;;;;;;0.00;0.00;;;;;16.02;47.40;102370.06;4981555;28;47172;-82
2021/10/14 10:38:21;;;;;;;;;0.00;0.00;;;;;15.91;46.66;102360.28;4969614;28;45350;-85
2021/10/14 10:40:49;;;;;;;;;1.00;1.00;;;;;15.84;46.84;102337.44;4980188;28;45486;-86
2021/10/14 10:43:14;;;;;;;;;0.00;0.00;;;;;16.05;46.51;102351.72;4990913;28;45339;-85
2021/10/14 10:45:53;;;;;;;;;0.00;0.00;;;;;15.77;47.29;102293.59;4975726;28;48550;-86
2021/10/14 10:54:48;;;;;;;;;;;;;;;;;;;;;
2021/10/14 10:57:58;;;;;;;;;;;;;;;;;;;;;
2021/10/14 11:04:27;;;;;;;;;1.75;1.00;;;;;15.63;47.48;102299.56;5043256;28;45321;-83
2021/10/14 11:06:52;;;;;;;;;0.75;0.00;;;;;15.28;47.17;102222.13;5050849;28;45400;-84
2021/10/14 11:09:17;;;;;;;;;0.00;0.00;;;;;15.98;47.35;102342.88;5057361;28;47147;-85
2021/10/14 11:11:43;;;;;;;;;0.00;0.00;;;;;15.65;47.36;102289.06;5060536;28;45301;-83
2021/10/14 11:14:10;;;;;;;;;0.00;0.00;;;;;15.89;47.22;102303.38;5059509;28;45184;-86
2021/10/14 11:16:35;;;;;;;;;0.50;0.50;;;;;15.75;47.61;102267.31;5063832;28;45308;-83
2021/10/14 11:19:02;;;;;;;;;1.00;1.00;;;;;16.11;47.38;102322.00;5059094;28;47320;-81
2021/10/14 11:21:29;;;;;;;;;0.00;0.00;;;;;15.83;46.93;102275.25;5055336;28;45325;-82
2021/10/14 11:23:59;;;;;;;;;0.00;0.00;;;;;16.18;47.10;102318.59;5052796;28;45277;-83
2021/10/14 11:26:31;;;;;;;;;1.00;0.00;;;;;15.96;46.73;102279.81;5049015;28;45347;-85
2021/10/14 11:29:13;;;;;;;;;0.00;0.00;;;;;16.05;46.57;102286.06;5046948;28;45421;-84
2021/10/14 11:34:52;;;;;;;;;0.00;0.00;;;;;15.96;46.67;102269.31;5048763;28;45485;-85
2021/10/14 11:37:21;;;;;;;;;0.75;0.75;;;;;15.62;46.30;102191.91;5073405;28;45446;-83
2021/10/14 11:39:48;;;;;;;;;0.00;0.00;;;;;16.14;46.52;102270.38;5053490;28;47115;-84
2021/10/14 11:42:20;;;;;;;;;0.00;0.00;;;;;16.25;46.12;102269.59;5064788;28;45477;-83
2021/10/14 11:44:52;;;;;;;;;0.00;0.00;;;;;16.40;46.07;102297.75;5058239;28;45487;-83
2021/10/14 11:47:19;;;;;;;;;0.00;0.00;;;;;16.06;45.71;102245.78;5068728;28;45595;-84
2021/10/14 11:49:46;;;;;;;;;0.00;0.00;;;;;16.00;45.80;102224.72;5121318;22;47062;-85
2021/10/14 11:52:13;;;;;;;;;0.00;0.00;;;;;16.23;45.40;102250.31;5101978;27;45438;-85
2021/10/14 11:54:41;;;;;;;;;0.00;0.00;;;;;16.20;45.81;102244.16;5087294;27;45283;-85
2021/10/14 11:57:07;;;;;;;;;0.00;0.00;;;;;16.25;45.48;102251.19;5084646;27;45286;-85
2021/10/14 11:59:34;;;;;;;;;0.50;0.50;;;;;16.41;45.13;102281.13;5097020;27;47931;-86
2021/10/14 12:02:27;;;;;;;;;0.75;0.00;;;;;16.34;45.47;102265.31;5105591;27;45680;-82
2021/10/14 12:04:54;;;;;;;;;0.00;0.00;;;;;16.16;45.36;102242.38;5085178;27;45244;-84
2021/10/14 12:07:25;;;;;;;;;0.50;0.50;;;;;16.32;45.05;102267.03;5098193;27;45512;-84
2021/10/14 12:09:56;;;;;;;;;0.00;0.00;;;;;15.61;45.27;102156.91;5080062;27;47380;-85
2021/10/14 12:12:23;;;;;;;;;1.00;0.00;;;;;16.14;44.95;102230.09;5080132;27;45380;-86
2021/10/14 12:15:04;;;;;;;;;0.00;0.00;;;;;15.88;44.99;102193.91;5097407;27;45374;-86
2021/10/14 12:17:39;;;;;;;;;0.00;0.00;;;;;16.40;44.78;102255.72;5106624;27;45351;-81
2021/10/14 12:20:11;;;;;;;;;0.00;0.00;;;;;16.42;45.33;102246.09;5125833;27;47123;-79
2021/10/14 12:22:41;;;;;;;;;0.00;0.00;;;;;16.12;44.41;102195.94;5102915;27;45223;-81
2021/10/14 12:25:06;;;;;;;;;0.00;0.00;;;;;16.34;44.36;102219.75;5109549;27;44864;-83
2021/10/14 12:27:47;;;;;;;;;0.00;0.00;;;;;16.49;44.85;102237.41;5099978;27;45314;-81
2021/10/14 12:30:20;;;;;;;;;0.00;0.00;;;;;16.51;45.26;102234.78;5105995;27;47858;-83
2021/10/14 12:32:46;;;;;;;;;0.00;0.00;;;;;16.33;44.94;102194.34;5089649;27;45433;-83
2021/10/14 12:35:13;;;;;;;;;0.00;0.00;;;;;16.49;45.10;102219.00;5108950;27;45301;-84
2021/10/14 12:37:38;;;;;;;;;1.00;0.00;;;;;16.00;44.16;102135.41;5097529;27;45915;-83
2021/10/14 12:40:23;;;;;;;;;0.00;0.00;;;;;16.51;44.37;102214.63;5101943;27;47432;-83